Time;durP1;ratioP1;P1;durP2;ratioP2;P2;SDS_P1;SDS_P2;PMS_P1;PMS_P2;Temp;Humidity;BMP_temperature;BMP_pressure;BME280_temperature;BME280_humidity;BME280_pressure;Samples;Min_cycle;Max_cycle;Signal;HPM_P1;HPM_P2
2023/07/19 00:00:55;;;;;;;21.03;19.73;;;17.70;99.90;;;;;;4419418;32;20173;-60
2023/07/19 00:03:22;;;;;;;19.27;18.37;;;17.50;99.90;;;;;;4419943;32;20164;-58
2023/07/19 00:05:50;;;;;;;20.53;19.43;;;17.50;99.90;;;;;;4417626;32;20167;-58
2023/07/19 00:08:17;;;;;;;20.00;19.10;;;17.30;99.90;;;;;;4419642;32;20155;-58
2023/07/19 00:10:43;;;;;;;23.23;22.13;;;17.30;99.90;;;;;;4420052;32;20190;-56
2023/07/19 00:13:10;;;;;;;20.93;19.83;;;17.30;99.90;;;;;;4420094;32;20212;-57
2023/07/19 00:15:37;;;;;;;23.50;22.20;;;17.30;99.90;;;;;;4417285;32;20202;-58
2023/07/19 00:18:06;;;;;;;22.67;21.53;;;17.40;99.90;;;;;;4421461;32;20595;-58
2023/07/19 00:20:33;;;;;;;21.57;20.37;;;17.30;99.90;;;;;;4419972;32;20162;-58
2023/07/19 00:23:01;;;;;;;22.40;21.30;;;17.20;99.90;;;;;;4420484;32;20591;-58
2023/07/19 00:25:28;;;;;;;23.40;22.30;;;17.10;99.90;;;;;;4418640;32;20623;-55
2023/07/19 00:27:55;;;;;;;24.10;23.00;;;17.00;99.90;;;;;;4420597;32;20194;-56
2023/07/19 00:30:21;;;;;;;21.27;20.17;;;16.90;99.90;;;;;;4417512;32;20199;-57
2023/07/19 00:32:48;;;;;;;24.47;23.27;;;16.80;99.90;;;;;;4417661;32;20212;-56
2023/07/19 00:35:16;;;;;;;25.60;24.43;;;16.80;99.90;;;;;;4418585;32;20156;-57
2023/07/19 00:37:43;;;;;;;23.87;22.53;;;16.70;99.90;;;;;;4416883;32;20200;-57
2023/07/19 00:40:12;;;;;;;23.60;22.43;;;16.60;99.90;;;;;;4418512;32;20668;-55
2023/07/19 00:42:39;;;;;;;25.00;23.80;;;16.60;99.90;;;;;;4416842;32;20580;-59
2023/07/19 00:45:07;;;;;;;23.20;22.00;;;16.50;99.90;;;;;;4415169;32;20160;-57
2023/07/19 00:47:34;;;;;;;25.53;24.17;;;16.50;99.90;;;;;;4419521;32;20183;-54
2023/07/19 00:50:06;;;;;;;24.47;23.27;;;16.50;99.90;;;;;;4419101;32;20198;-58
2023/07/19 00:52:34;;;;;;;23.53;22.43;;;16.50;99.90;;;;;;4420293;32;20206;-56
2023/07/19 00:55:01;;;;;;;26.10;24.67;;;16.40;99.90;;;;;;4420932;32;20175;-58
2023/07/19 00:57:29;;;;;;;25.00;23.80;;;16.40;99.90;;;;;;4420654;32;20171;-58
2023/07/19 00:59:57;;;;;;;22.37;21.23;;;16.40;99.90;;;;;;4420278;32;20155;-56
2023/07/19 01:02:23;;;;;;;24.43;23.13;;;16.50;99.90;;;;;;4421024;32;20152;-57
2023/07/19 01:04:50;;;;;;;24.70;23.50;;;16.60;99.90;;;;;;4420488;32;20170;-58
2023/07/19 01:07:18;;;;;;;21.97;20.97;;;16.60;99.90;;;;;;4420227;32;20159;-55
2023/07/19 01:09:44;;;;;;;23.93;22.83;;;16.70;99.90;;;;;;4419321;32;20217;-57
2023/07/19 01:12:11;;;;;;;25.13;23.93;;;16.70;99.90;;;;;;4421948;32;20151;-58
2023/07/19 01:14:40;;;;;;;24.37;22.83;;;16.70;99.90;;;;;;4420554;32;20533;-57
2023/07/19 01:17:06;;;;;;;21.43;20.43;;;16.60;99.90;;;;;;4420623;32;20582;-58
2023/07/19 01:19:35;;;;;;;25.30;24.00;;;16.60;99.90;;;;;;4416965;32;20151;-58
2023/07/19 01:22:02;;;;;;;21.53;20.53;;;16.60;99.90;;;;;;4421260;32;20182;-56
2023/07/19 01:24:30;;;;;;;22.77;21.73;;;16.50;99.90;;;;;;4419861;32;20479;-55
2023/07/19 01:26:57;;;;;;;24.97;23.77;;;16.40;99.90;;;;;;4419160;32;20170;-59
2023/07/19 01:29:24;;;;;;;24.37;23.17;;;16.30;99.90;;;;;;4419018;32;20193;-58
2023/07/19 01:31:51;;;;;;;24.33;23.00;;;16.30;99.90;;;;;;4429163;32;20151;-54
2023/07/19 01:34:18;;;;;;;23.33;22.07;;;16.30;99.90;;;;;;4420773;32;20186;-54
2023/07/19 01:36:45;;;;;;;23.27;22.17;;;16.20;99.90;;;;;;4413069;32;20199;-57
2023/07/19 01:39:12;;;;;;;25.17;23.63;;;16.20;99.90;;;;;;4412945;32;20159;-57
2023/07/19 01:41:40;;;;;;;25.17;23.70;;;16.30;99.90;;;;;;4417944;32;20164;-57
2023/07/19 01:44:07;;;;;;;26.60;25.30;;;16.20;99.90;;;;;;4421041;32;20159;-58
2023/07/19 01:46:35;;;;;;;24.07;22.87;;;16.30;99.90;;;;;;4414782;32;20186;-57
2023/07/19 01:49:02;;;;;;;24.33;22.93;;;16.20;99.90;;;;;;4416132;32;20174;-57
2023/07/19 01:51:29;;;;;;;27.63;26.10;;;16.30;99.90;;;;;;4419464;32;20159;-59
2023/07/19 01:53:57;;;;;;;26.37;25.07;;;16.30;99.90;;;;;;4417359;32;20164;-55
2023/07/19 01:56:24;;;;;;;26.40;25.10;;;16.30;99.90;;;;;;4414582;32;20192;-56
2023/07/19 01:58:53;;;;;;;22.73;21.63;;;16.30;99.90;;;;;;4422550;32;20202;-58
2023/07/19 02:01:23;;;;;;;24.47;23.23;;;16.20;99.90;;;;;;4421358;32;20171;-58
2023/07/19 02:03:50;;;;;;;26.40;24.93;;;16.10;99.90;;;;;;4422556;32;20579;-59
2023/07/19 02:06:17;;;;;;;25.47;23.97;;;15.90;99.90;;;;;;4423232;32;20641;-55
2023/07/19 02:08:44;;;;;;;27.03;25.60;;;15.90;99.90;;;;;;4418360;32;20205;-54
2023/07/19 02:11:13;;;;;;;27.00;25.60;;;15.90;99.90;;;;;;4422335;32;20151;-57
2023/07/19 02:13:40;;;;;;;28.80;27.23;;;15.90;99.90;;;;;;4419893;32;20190;-57
2023/07/19 02:16:08;;;;;;;25.30;24.00;;;15.80;99.90;;;;;;4419560;32;20492;-54
2023/07/19 02:18:35;;;;;;;25.03;23.73;;;15.80;99.90;;;;;;4419948;32;20639;-57
2023/07/19 02:21:04;;;;;;;23.97;22.57;;;15.70;99.90;;;;;;4416803;32;20163;-55
2023/07/19 02:23:31;;;;;;;24.40;23.00;;;15.70;99.90;;;;;;4419519;32;20171;-58
2023/07/19 02:25:58;;;;;;;25.87;24.43;;;15.60;99.90;;;;;;4415952;32;20684;-57
2023/07/19 02:28:25;;;;;;;25.30;23.70;;;15.70;99.90;;;;;;4412528;32;20159;-57
2023/07/19 02:30:52;;;;;;;31.03;29.43;;;15.60;99.90;;;;;;4417185;32;20175;-56
2023/07/19 02:33:20;;;;;;;26.63;25.17;;;15.60;99.90;;;;;;4419112;32;20199;-60
2023/07/19 02:35:53;;;;;;;25.93;24.63;;;15.60;99.90;;;;;;4417715;32;20152;-55
2023/07/19 02:38:20;;;;;;;27.40;25.90;;;15.60;99.90;;;;;;4420813;32;20564;-58
2023/07/19 02:40:47;;;;;;;24.53;23.43;;;15.60;99.90;;;;;;4415808;32;20206;-57
2023/07/19 02:43:13;;;;;;;25.70;24.50;;;15.60;99.90;;;;;;4411870;32;20155;-57
2023/07/19 02:45:41;;;;;;;25.50;24.30;;;15.70;99.90;;;;;;4418948;32;20588;-60
2023/07/19 02:48:08;;;;;;;26.80;25.50;;;15.80;99.90;;;;;;4417282;32;20193;-58
2023/07/19 02:50:36;;;;;;;26.87;25.10;;;15.90;99.90;;;;;;4411665;32;20155;-56
2023/07/19 02:53:03;;;;;;;26.57;25.30;;;15.80;99.90;;;;;;4408757;32;20180;-58
2023/07/19 02:55:30;;;;;;;24.30;22.97;;;15.90;99.90;;;;;;4417336;32;20186;-56
2023/07/19 02:57:57;;;;;;;26.87;25.43;;;15.90;99.90;;;;;;4419787;32;20150;-57
2023/07/19 03:00:24;;;;;;;24.37;23.20;;;15.90;99.90;;;;;;4415122;32;20179;-58
2023/07/19 03:02:53;;;;;;;23.50;22.30;;;15.90;99.90;;;;;;4407229;32;20159;-57
2023/07/19 03:05:20;;;;;;;24.53;23.27;;;16.00;99.90;;;;;;4409299;32;20151;-58
2023/07/19 03:07:49;;;;;;;26.97;25.47;;;16.10;99.90;;;;;;4421214;32;20253;-56
2023/07/19 03:10:16;;;;;;;23.43;22.23;;;16.10;99.90;;;;;;4421667;32;20213;-55
2023/07/19 03:12:43;;;;;;;25.03;23.87;;;16.00;99.90;;;;;;4420962;32;20207;-61
2023/07/19 03:15:10;;;;;;;27.40;26.20;;;16.00;99.90;;;;;;4421353;32;20183;-58
2023/07/19 03:17:37;;;;;;;22.73;21.50;;;15.90;99.90;;;;;;4417404;32;20483;-57
2023/07/19 03:20:06;;;;;;;24.80;23.67;;;15.90;99.90;;;;;;4419333;32;20186;-58
2023/07/19 03:22:33;;;;;;;26.97;25.67;;;15.90;99.90;;;;;;4419737;32;20155;-57
2023/07/19 03:25:01;;;;;;;24.60;23.43;;;15.90;99.90;;;;;;4420308;32;20502;-57
2023/07/19 03:27:28;;;;;;;24.03;22.93;;;15.90;99.90;;;;;;4417975;32;20167;-54
2023/07/19 03:29:55;;;;;;;26.37;25.17;;;15.90;99.90;;;;;;4421233;32;20504;-57
2023/07/19 03:32:24;;;;;;;26.87;25.57;;;16.00;99.90;;;;;;4420613;32;20148;-58
2023/07/19 03:34:51;;;;;;;24.57;23.20;;;16.10;99.90;;;;;;4419311;32;20596;-54
2023/07/19 03:37:18;;;;;;;27.30;25.80;;;16.10;99.90;;;;;;4419040;32;20175;-58
2023/07/19 03:39:44;;;;;;;26.33;24.87;;;16.10;99.90;;;;;;4420481;32;20160;-60
2023/07/19 03:42:13;;;;;;;25.70;24.50;;;16.10;99.90;;;;;;4419578;32;20189;-56
2023/07/19 03:44:39;;;;;;;26.07;24.83;;;16.00;99.90;;;;;;4420143;32;20211;-51
2023/07/19 03:47:07;;;;;;;28.43;26.83;;;16.00;99.90;;;;;;4421305;32;20218;-56
2023/07/19 03:49:33;;;;;;;26.77;25.50;;;16.00;99.90;;;;;;4419967;32;20163;-54
2023/07/19 03:52:00;;;;;;;25.47;24.27;;;16.00;99.90;;;;;;4419326;32;20172;-59
2023/07/19 03:54:27;;;;;;;25.03;23.83;;;16.00;99.90;;;;;;4409374;32;20453;-54
2023/07/19 03:56:55;;;;;;;25.73;24.30;;;16.00;99.90;;;;;;4405928;32;20162;-57
2023/07/19 03:59:24;;;;;;;28.47;26.90;;;16.00;99.90;;;;;;4420794;32;20155;-56
2023/07/19 04:01:51;;;;;;;23.77;22.57;;;16.00;99.90;;;;;;4412831;32;20160;-58
2023/07/19 04:04:17;;;;;;;26.53;25.03;;;16.00;99.90;;;;;;4421012;32;20151;-54
2023/07/19 04:06:44;;;;;;;25.27;23.87;;;16.00;99.90;;;;;;4418283;32;20174;-53
2023/07/19 04:09:11;;;;;;;27.10;25.77;;;16.00;99.90;;;;;;4421118;32;20246;-58
2023/07/19 04:11:38;;;;;;;23.97;22.83;;;16.00;99.90;;;;;;4418110;32;20258;-55
2023/07/19 04:14:05;;;;;;;23.97;22.77;;;16.10;99.90;;;;;;4412902;32;20599;-54
2023/07/19 04:16:33;;;;;;;25.43;24.13;;;16.20;99.90;;;;;;4420784;32;20167;-59
2023/07/19 04:19:00;;;;;;;23.10;21.90;;;16.20;99.90;;;;;;4417870;32;20193;-56
2023/07/19 04:21:27;;;;;;;25.23;23.93;;;16.20;99.90;;;;;;4420131;32;20203;-57
2023/07/19 04:23:54;;;;;;;24.60;23.03;;;16.10;99.90;;;;;;4420124;32;20186;-56
2023/07/19 04:26:21;;;;;;;28.37;26.73;;;16.10;99.90;;;;;;4420280;32;20169;-54
2023/07/19 04:32:11;;;;;;;28.27;26.93;;;16.20;99.90;;;;;;4421455;32;20208;-58
2023/07/19 04:34:38;;;;;;;25.17;24.00;;;16.30;99.90;;;;;;4419209;32;20170;-54
2023/07/19 04:37:05;;;;;;;27.90;26.40;;;16.30;99.90;;;;;;4419181;32;20155;-54
2023/07/19 04:39:31;;;;;;;27.97;26.63;;;16.20;99.90;;;;;;4420096;32;20156;-57
2023/07/19 04:41:58;;;;;;;24.17;22.77;;;16.20;99.90;;;;;;4420658;32;20167;-55
2023/07/19 04:44:25;;;;;;;26.50;25.17;;;16.20;99.90;;;;;;4420515;32;20163;-56
2023/07/19 04:46:52;;;;;;;26.13;24.73;;;16.20;99.90;;;;;;4418704;32;20179;-54
2023/07/19 04:49:21;;;;;;;24.50;23.30;;;16.10;99.90;;;;;;4419447;32;20147;-57
2023/07/19 04:51:48;;;;;;;23.37;21.87;;;16.30;99.90;;;;;;4412562;32;20229;-56
2023/07/19 04:54:14;;;;;;;24.97;23.47;;;16.50;99.90;;;;;;4414408;32;20186;-55
2023/07/19 04:56:41;;;;;;;24.43;22.90;;;16.80;99.90;;;;;;4417526;32;20642;-54
2023/07/19 04:59:08;;;;;;;17.57;16.50;;;17.30;99.90;;;;;;4421652;32;20167;-53
2023/07/19 05:01:38;;;;;;;24.03;22.60;;;18.40;99.90;;;;;;4420056;32;20159;-57
2023/07/19 05:04:05;;;;;;;28.50;27.10;;;18.90;99.90;;;;;;4415219;32;20156;-56
2023/07/19 05:06:33;;;;;;;29.53;27.90;;;18.80;99.90;;;;;;4414488;32;20194;-56
2023/07/19 05:09:00;;;;;;;29.30;27.77;;;18.40;99.90;;;;;;4414645;32;20189;-55
2023/07/19 05:11:27;;;;;;;30.97;29.43;;;18.20;99.90;;;;;;4415860;32;20233;-54
2023/07/19 05:13:54;;;;;;;29.93;28.43;;;18.10;99.90;;;;;;4413826;32;20238;-54
2023/07/19 05:16:21;;;;;;;30.33;28.37;;;18.20;99.90;;;;;;4415105;32;20194;-56
2023/07/19 05:18:48;;;;;;;32.17;30.57;;;18.30;99.90;;;;;;4411400;32;20151;-55
2023/07/19 05:21:15;;;;;;;31.73;30.03;;;18.40;99.90;;;;;;4414966;32;20155;-56
2023/07/19 05:23:43;;;;;;;32.30;30.60;;;18.60;99.90;;;;;;4417839;32;20195;-58
2023/07/19 05:26:10;;;;;;;32.80;31.10;;;18.80;99.90;;;;;;4421547;32;20206;-58
2023/07/19 05:28:39;;;;;;;29.70;28.40;;;19.50;99.90;;;;;;4413229;32;20236;-56
2023/07/19 05:31:08;;;;;;;32.50;30.83;;;19.90;99.90;;;;;;4415451;32;20203;-54
2023/07/19 05:33:35;;;;;;;35.47;33.57;;;20.00;99.90;;;;;;4415164;32;20228;-56
2023/07/19 05:36:02;;;;;;;33.57;32.03;;;20.20;99.90;;;;;;4413080;32;20166;-55
2023/07/19 05:38:32;;;;;;;30.57;29.07;;;20.50;99.90;;;;;;4421868;32;20163;-57
2023/07/19 05:41:02;;;;;;;29.83;28.13;;;21.00;99.90;;;;;;4416349;32;20174;-52
2023/07/19 05:43:28;;;;;;;34.17;32.43;;;21.30;99.90;;;;;;4415452;32;20190;-55
2023/07/19 05:46:03;;;;;;;36.27;34.27;;;21.20;99.90;;;;;;4422090;32;20170;-53
2023/07/19 05:48:29;;;;;;;40.87;38.87;;;21.30;99.90;;;;;;4417475;32;20166;-60
2023/07/19 05:50:56;;;;;;;33.77;32.17;;;21.20;99.90;;;;;;4413968;32;20202;-54
2023/07/19 05:53:23;;;;;;;37.03;35.13;;;21.00;99.90;;;;;;4420554;32;20171;-57
2023/07/19 05:55:51;;;;;;;41.43;39.23;;;20.70;99.90;;;;;;4421233;32;20151;-56
2023/07/19 05:58:19;;;;;;;37.40;35.37;;;20.60;99.90;;;;;;4421355;32;20175;-57
2023/07/19 06:00:47;;;;;;;42.07;39.87;;;20.40;99.90;;;;;;4423164;32;20155;-52
2023/07/19 06:03:16;;;;;;;39.07;37.07;;;20.40;99.90;;;;;;4422572;32;20163;-57
2023/07/19 06:05:43;;;;;;;41.27;39.17;;;20.60;99.90;;;;;;4420290;32;20505;-59
2023/07/19 06:08:10;;;;;;;37.43;35.40;;;20.80;99.90;;;;;;4417758;32;20178;-52
2023/07/19 06:10:37;;;;;;;37.80;35.70;;;20.90;99.90;;;;;;4420357;32;20198;-57
2023/07/19 06:13:04;;;;;;;41.60;39.53;;;21.30;99.90;;;;;;4418639;32;20290;-56
2023/07/19 06:15:32;;;;;;;37.50;35.70;;;21.80;99.90;;;;;;4417548;32;20162;-58
2023/07/19 06:17:59;;;;;;;38.63;36.70;;;21.90;99.90;;;;;;4419748;32;20206;-58
2023/07/19 06:20:26;;;;;;;44.30;42.10;;;21.80;99.90;;;;;;4419830;32;20588;-57
2023/07/19 06:22:53;;;;;;;45.80;43.30;;;22.10;99.90;;;;;;4423434;32;20160;-55
2023/07/19 06:25:20;;;;;;;49.20;46.73;;;22.10;99.90;;;;;;4416674;32;20215;-54
2023/07/19 06:27:47;;;;;;;50.77;48.27;;;21.80;99.90;;;;;;4411363;32;20693;-56
2023/07/19 06:30:14;;;;;;;47.93;45.43;;;21.60;99.90;;;;;;4415473;32;20170;-56
2023/07/19 06:32:43;;;;;;;53.07;50.47;;;21.30;99.90;;;;;;4418873;32;20627;-59
2023/07/19 06:35:10;;;;;;;45.07;42.80;;;21.20;99.90;;;;;;4413282;32;20242;-54
2023/07/19 06:37:37;;;;;;;42.30;40.20;;;21.10;99.90;;;;;;4416076;32;20525;-53
2023/07/19 06:40:05;;;;;;;41.60;39.60;;;21.20;99.90;;;;;;4420061;32;20178;-54
2023/07/19 06:42:33;;;;;;;46.87;44.73;;;21.20;99.90;;;;;;4419737;32;20639;-53
2023/07/19 06:45:00;;;;;;;41.43;39.43;;;21.30;99.90;;;;;;4414841;32;20681;-55
2023/07/19 06:47:28;;;;;;;40.03;38.17;;;21.60;99.90;;;;;;4420356;32;20195;-56
2023/07/19 06:49:56;;;;;;;34.67;32.87;;;21.90;99.90;;;;;;4421953;32;20156;-54
2023/07/19 06:52:23;;;;;;;38.00;36.10;;;22.30;99.90;;;;;;4417716;32;20223;-52
2023/07/19 06:54:51;;;;;;;38.87;37.07;;;22.50;99.90;;;;;;4421684;32;20202;-56
2023/07/19 06:57:21;;;;;;;34.70;32.92;;;22.90;99.90;;;;;;4420484;32;20573;-55
2023/07/19 06:59:50;;;;;;;31.57;30.03;;;23.20;99.90;;;;;;4415237;32;20203;-55
2023/07/19 07:02:18;;;;;;;36.93;35.17;;;23.30;99.90;;;;;;4416104;32;20198;-56
2023/07/19 07:04:45;;;;;;;40.47;38.47;;;23.60;99.90;;;;;;4409778;32;20148;-55
2023/07/19 07:07:18;;;;;;;38.53;36.60;;;23.50;99.90;;;;;;4421483;32;20560;-55
2023/07/19 07:09:45;;;;;;;37.42;35.70;;;23.40;99.90;;;;;;4423264;32;20224;-56
2023/07/19 07:12:12;;;;;;;41.35;39.15;;;23.70;99.90;;;;;;4418218;32;21192;-57
2023/07/19 07:14:39;;;;;;;50.90;48.35;;;24.00;99.90;;;;;;4414777;32;20171;-56
2023/07/19 07:17:07;;;;;;;52.13;49.67;;;24.10;99.90;;;;;;4417275;32;20167;-53
2023/07/19 07:19:34;;;;;;;51.95;49.58;;;24.60;99.90;;;;;;4411068;32;20171;-54
2023/07/19 07:22:01;;;;;;;57.25;54.80;;;25.00;99.90;;;;;;4413590;32;20174;-54
2023/07/19 07:24:29;;;;;;;55.20;52.58;;;25.30;99.90;;;;;;4423187;32;20174;-55
2023/07/19 07:26:56;;;;;;;53.42;50.92;;;25.50;99.90;;;;;;4416544;32;20190;-57
2023/07/19 07:29:24;;;;;;;58.03;55.45;;;25.80;99.90;;;;;;4416689;32;20179;-56
2023/07/19 07:31:51;;;;;;;61.72;58.90;;;26.20;98.10;;;;;;4419799;32;20175;-56
2023/07/19 07:34:18;;;;;;;65.30;62.40;;;27.20;97.80;;;;;;4413631;32;20503;-56
2023/07/19 07:36:45;;;;;;;69.43;66.43;;;27.40;97.20;;;;;;4413019;32;20191;-55
2023/07/19 07:39:13;;;;;;;63.80;60.65;;;26.70;96.80;;;;;;4412492;32;20175;-58
2023/07/19 07:41:41;;;;;;;67.18;63.90;;;26.90;97.60;;;;;;4412616;32;20652;-54
2023/07/19 07:44:08;;;;;;;58.80;56.10;;;27.60;96.80;;;;;;4414398;32;20218;-56
2023/07/19 07:46:35;;;;;;;66.20;63.40;;;30.00;95.70;;;;;;4412728;32;20151;-58
2023/07/19 07:49:02;;;;;;;84.90;81.40;;;34.00;86.50;;;;;;4411991;32;20175;-57
2023/07/19 07:51:30;;;;;;;78.53;74.97;;;37.40;78.50;;;;;;4415245;32;20163;-57
2023/07/19 07:53:57;;;;;;;98.28;93.87;;;38.80;72.50;;;;;;4412067;32;20178;-58
2023/07/19 07:56:24;;;;;;;109.55;104.72;;;38.80;70.20;;;;;;4415502;32;20217;-53
2023/07/19 07:58:53;;;;;;;137.60;132.15;;;37.00;69.30;;;;;;4413866;32;20160;-56
2023/07/19 08:01:20;;;;;;;140.52;134.75;;;40.40;69.80;;;;;;4410969;32;20155;-56
2023/07/19 08:03:47;;;;;;;127.22;122.03;;;44.00;63.30;;;;;;4416273;32;20186;-55
2023/07/19 08:06:14;;;;;;;97.53;93.50;;;46.40;58.40;;;;;;4421519;32;20174;-58
2023/07/19 08:08:41;;;;;;;118.30;113.07;;;44.80;55.40;;;;;;4417711;32;20164;-55
2023/07/19 08:11:09;;;;;;;125.43;120.40;;;42.60;56.40;;;;;;4420665;32;20226;-58
2023/07/19 08:13:36;;;;;;;119.65;114.78;;;43.10;56.90;;;;;;4416316;32;20215;-58
2023/07/19 08:16:06;;;;;;;131.43;126.03;;;42.80;54.70;;;;;;4420053;32;20187;-54
2023/07/19 08:18:33;;;;;;;170.43;163.52;;;41.00;55.20;;;;;;4421365;32;20160;-57
2023/07/19 08:21:00;;;;;;;197.05;189.13;;;39.20;57.10;;;;;;4421686;32;20152;-59
2023/07/19 08:23:29;;;;;;;256.83;246.82;;;39.40;56.60;;;;;;4421532;32;20220;-57
2023/07/19 08:25:56;;;;;;;284.48;273.30;;;37.20;58.80;;;;;;4409837;32;20159;-57
2023/07/19 08:28:25;;;;;;;326.40;313.55;;;35.00;61.10;;;;;;4415564;32;20181;-54
2023/07/19 08:30:52;;;;;;;351.73;337.58;;;33.20;63.50;;;;;;4417147;32;20265;-56
2023/07/19 08:33:23;;;;;;;377.33;362.10;;;31.90;67.20;;;;;;4418513;32;20191;-58
2023/07/19 08:35:50;;;;;;;397.50;381.33;;;32.90;66.00;;;;;;4416870;32;20230;-55
2023/07/19 08:38:17;;;;;;;401.63;385.02;;;33.20;66.00;;;;;;4419362;32;20168;-58
2023/07/19 08:40:54;;;;;;;384.27;368.67;;;32.50;66.90;;;;;;4419879;32;20223;-57
2023/07/19 08:43:21;;;;;;;401.15;384.85;;;31.30;68.50;;;;;;4420141;32;20158;-56
2023/07/19 08:45:48;;;;;;;386.75;370.95;;;30.30;70.80;;;;;;4421015;32;20159;-57
2023/07/19 08:48:16;;;;;;;399.17;383.00;;;30.30;70.80;;;;;;4421229;32;20186;-54
2023/07/19 08:50:51;;;;;;;394.23;378.17;;;30.50;70.80;;;;;;4423262;32;20170;-57
2023/07/19 08:53:17;;;;;;;389.92;373.98;;;29.90;71.90;;;;;;4419540;32;20182;-56
2023/07/19 08:55:44;;;;;;;399.25;383.13;;;28.80;74.50;;;;;;4422371;32;20163;-58
2023/07/19 08:58:11;;;;;;;412.33;395.52;;;27.70;78.00;;;;;;4423866;32;20495;-56
2023/07/19 09:00:39;;;;;;;383.02;367.35;;;26.70;83.10;;;;;;4414427;32;20199;-54
2023/07/19 09:03:06;;;;;;;385.67;370.17;;;26.00;87.70;;;;;;4412667;32;20172;-58
2023/07/19 09:05:38;;;;;;;365.80;351.30;;;25.80;90.50;;;;;;4417513;32;20234;-59
2023/07/19 09:08:08;;;;;;;306.23;294.00;;;27.80;87.80;;;;;;4412187;32;20152;-57
2023/07/19 09:10:36;;;;;;;252.35;242.35;;;31.20;80.60;;;;;;4412640;32;20159;-56
2023/07/19 09:13:05;;;;;;;181.80;174.48;;;33.00;73.50;;;;;;4411623;32;20843;-56
2023/07/19 09:15:35;;;;;;;186.95;179.35;;;34.00;70.20;;;;;;4413684;32;20167;-57
2023/07/19 09:18:05;;;;;;;180.02;172.77;;;35.90;68.50;;;;;;4414857;32;20580;-57
2023/07/19 09:20:34;;;;;;;172.35;165.57;;;35.50;66.70;;;;;;4414363;32;20155;-53
2023/07/19 09:23:05;;;;;;;166.95;160.32;;;33.30;68.00;;;;;;4415399;32;20167;-56
2023/07/19 09:25:34;;;;;;;225.27;216.38;;;30.60;70.20;;;;;;4411003;32;20212;-56
2023/07/19 09:28:09;;;;;;;237.82;228.50;;;28.80;74.00;;;;;;4411856;32;20602;-56
2023/07/19 09:30:36;;;;;;;274.02;263.40;;;27.30;78.70;;;;;;4414203;32;20522;-57
2023/07/19 09:33:03;;;;;;;258.48;248.10;;;26.40;83.80;;;;;;4410774;32;20220;-55
2023/07/19 09:35:30;;;;;;;289.85;278.62;;;25.40;87.70;;;;;;4414103;32;20599;-57
2023/07/19 09:37:58;;;;;;;239.98;230.70;;;25.40;90.50;;;;;;4418065;32;20164;-56
2023/07/19 09:40:26;;;;;;;240.77;231.20;;;28.50;83.00;;;;;;4418672;32;20229;-57
2023/07/19 09:42:57;;;;;;;169.07;162.25;;;31.80;79.90;;;;;;4421245;32;20207;-55
2023/07/19 09:45:28;;;;;;;156.55;150.32;;;34.50;70.50;;;;;;4420171;32;20152;-57
2023/07/19 09:47:58;;;;;;;176.65;169.68;;;32.40;69.30;;;;;;4418313;32;20587;-57
2023/07/19 09:50:27;;;;;;;191.10;183.68;;;29.40;74.00;;;;;;4420660;32;20560;-57
2023/07/19 09:52:58;;;;;;;208.70;200.38;;;26.90;83.10;;;;;;4421355;32;20143;-57
2023/07/19 09:55:26;;;;;;;222.15;212.43;;;24.90;91.20;;;;;;4419712;32;20148;-56
2023/07/19 09:57:56;;;;;;;179.52;171.75;;;23.00;99.90;;;;;;4421605;32;20170;-54
2023/07/19 10:00:23;;;;;;;137.35;131.55;;;21.80;99.90;;;;;;4421355;32;20226;-56
2023/07/19 10:02:50;;;;;;;114.07;109.33;;;21.20;99.90;;;;;;4420642;32;20178;-56
2023/07/19 10:05:18;;;;;;;100.67;96.27;;;20.90;99.90;;;;;;4420450;32;20162;-55
2023/07/19 10:07:49;;;;;;;74.10;70.83;;;20.70;99.90;;;;;;4422459;32;20449;-50
2023/07/19 10:10:20;;;;;;;58.90;55.97;;;20.70;99.90;;;;;;4421093;32;20461;-54
2023/07/19 10:12:48;;;;;;;50.27;48.03;;;21.10;99.90;;;;;;4421095;32;20173;-57
2023/07/19 10:15:18;;;;;;;54.70;51.63;;;21.40;99.90;;;;;;4420215;32;20269;-56
2023/07/19 10:17:55;;;;;;;46.70;44.03;;;21.60;99.90;;;;;;4419243;32;20148;-56
2023/07/19 10:20:25;;;;;;;45.90;43.53;;;21.90;99.90;;;;;;4417761;32;20174;-53
2023/07/19 10:22:56;;;;;;;44.90;42.70;;;22.00;99.90;;;;;;4418135;32;20575;-56
2023/07/19 10:25:25;;;;;;;44.33;42.23;;;22.30;99.90;;;;;;4411342;32;20234;-55
2023/07/19 10:28:04;;;;;;;45.53;43.43;;;22.40;99.90;;;;;;4414325;32;20225;-58
2023/07/19 10:30:53;;;;;;;44.43;42.50;;;22.10;99.90;;;;;;4418472;32;20185;-56
2023/07/19 10:33:21;;;;;;;44.10;42.20;;;21.20;99.90;;;;;;4421465;32;20148;-55
2023/07/19 10:35:50;;;;;;;40.80;38.70;;;20.60;99.90;;;;;;4412329;32;22323;-55
2023/07/19 10:38:19;;;;;;;41.77;39.60;;;20.50;99.90;;;;;;4418135;32;20156;-56
2023/07/19 10:40:48;;;;;;;38.67;36.80;;;20.60;99.90;;;;;;4417448;32;20139;-53
2023/07/19 10:43:15;;;;;;;34.40;32.77;;;20.90;99.90;;;;;;4414508;32;20151;-57
2023/07/19 10:45:43;;;;;;;29.47;27.97;;;21.60;99.90;;;;;;4418112;32;20222;-55
2023/07/19 10:48:11;;;;;;;33.53;31.93;;;21.90;99.90;;;;;;4418976;32;20826;-54
2023/07/19 10:50:39;;;;;;;36.07;34.30;;;22.60;99.90;;;;;;4416507;32;20207;-59
2023/07/19 10:53:07;;;;;;;32.60;30.93;;;22.80;99.90;;;;;;4419377;32;20155;-57
2023/07/19 10:55:33;;;;;;;29.97;28.57;;;22.40;99.90;;;;;;4421178;32;20220;-57
2023/07/19 10:58:00;;;;;;;26.90;25.48;;;22.30;99.90;;;;;;4420759;32;20567;-56
2023/07/19 11:00:27;;;;;;;29.80;28.17;;;22.60;99.90;;;;;;4422398;32;20163;-56
2023/07/19 11:02:54;;;;;;;26.97;25.57;;;22.90;99.90;;;;;;4419235;32;20159;-53
2023/07/19 11:05:22;;;;;;;29.97;28.47;;;23.20;99.90;;;;;;4418598;32;20197;-56
2023/07/19 11:07:51;;;;;;;29.00;27.37;;;23.70;99.90;;;;;;4420401;32;20533;-58
2023/07/19 11:10:18;;;;;;;32.03;30.53;;;23.90;99.90;;;;;;4421751;32;20173;-59
2023/07/19 11:12:45;;;;;;;31.70;30.00;;;24.10;99.90;;;;;;4420725;32;20219;-58
2023/07/19 11:15:12;;;;;;;28.90;27.20;;;24.40;99.90;;;;;;4421319;32;20179;-53
2023/07/19 11:17:39;;;;;;;27.87;26.53;;;23.80;99.90;;;;;;4422533;32;20153;-56
2023/07/19 11:20:09;;;;;;;22.48;21.48;;;23.80;99.90;;;;;;4420617;32;20174;-55
2023/07/19 11:22:38;;;;;;;23.02;21.65;;;24.00;99.90;;;;;;4397135;32;20164;-56
2023/07/19 11:25:11;;;;;;;23.45;21.98;;;24.10;99.90;;;;;;4419474;32;20155;-60
2023/07/19 11:27:40;;;;;;;22.20;21.08;;;24.00;99.90;;;;;;4418228;32;20151;-56
2023/07/19 11:30:08;;;;;;;23.87;22.58;;;24.50;99.90;;;;;;4420427;32;20178;-58
2023/07/19 11:32:35;;;;;;;22.67;21.48;;;23.90;99.90;;;;;;4419033;32;20464;-57
2023/07/19 11:35:03;;;;;;;25.47;24.00;;;24.30;99.90;;;;;;4410638;32;20557;-54
2023/07/19 11:37:36;;;;;;;30.98;29.52;;;24.40;99.90;;;;;;4418486;32;20208;-57
2023/07/19 11:40:06;;;;;;;32.60;31.10;;;24.00;99.90;;;;;;4412258;32;20170;-58
2023/07/19 11:42:47;;;;;;;29.12;27.65;;;23.70;99.90;;;;;;4401593;32;20205;-55
2023/07/19 11:45:16;;;;;;;24.20;23.12;;;23.90;99.90;;;;;;4406816;32;20166;-59
2023/07/19 11:47:44;;;;;;;27.65;26.45;;;24.60;99.90;;;;;;4415178;32;20445;-59
2023/07/19 11:50:12;;;;;;;27.83;26.42;;;25.20;99.90;;;;;;4414249;32;20225;-58
2023/07/19 11:52:47;;;;;;;34.38;32.47;;;25.20;99.90;;;;;;4417605;32;20563;-57
2023/07/19 11:55:16;;;;;;;36.55;34.83;;;25.10;99.90;;;;;;4417169;32;20192;-56
2023/07/19 11:57:45;;;;;;;42.97;41.15;;;24.70;99.90;;;;;;4420295;32;20168;-56
2023/07/19 12:00:15;;;;;;;56.20;53.55;;;24.50;99.90;;;;;;4422701;32;20590;-57
2023/07/19 12:02:43;;;;;;;59.20;56.33;;;24.10;99.90;;;;;;4418635;32;20180;-58
2023/07/19 12:05:13;;;;;;;57.65;55.10;;;24.10;99.90;;;;;;4413867;32;20186;-55
2023/07/19 12:07:40;;;;;;;58.17;55.60;;;24.40;99.90;;;;;;4415473;32;20211;-60
2023/07/19 12:10:09;;;;;;;57.75;55.25;;;24.40;99.90;;;;;;4416309;32;20186;-59
2023/07/19 12:12:37;;;;;;;65.37;62.58;;;24.70;99.90;;;;;;4418262;32;20167;-58
2023/07/19 12:15:07;;;;;;;73.90;70.72;;;24.90;99.90;;;;;;4420770;32;20178;-57
2023/07/19 12:17:36;;;;;;;79.32;75.97;;;24.90;99.90;;;;;;4421353;32;20899;-58
2023/07/19 12:20:07;;;;;;;77.87;74.65;;;24.60;99.90;;;;;;4418147;32;20189;-59
2023/07/19 12:22:34;;;;;;;91.80;87.70;;;24.60;99.90;;;;;;4419663;32;20174;-58
2023/07/19 12:25:02;;;;;;;92.88;88.90;;;24.80;99.90;;;;;;4418560;32;20693;-58
2023/07/19 12:27:29;;;;;;;96.10;92.10;;;24.80;99.90;;;;;;4417100;32;20172;-58
2023/07/19 12:29:58;;;;;;;91.32;87.57;;;24.80;99.90;;;;;;4417724;32;20155;-59